Terminal Aerodrome Forecast
Issued by NWS

Home | Current Version | Previous Version | Text Only | Print | Product List | Glossary On
Versions: 1 2 3 4 5 6 7 8 9 10 11 12 13 14 15
000
FTUS45 KTFX 232300
TAFHVR
TAF
KHVR 232338Z 2400/2424 12011KT P6SM SCT100 SCT180
     FM240300 08008KT P6SM SCT090 BKN150
      TEMPO 2403/2407 VRB20G45KT 5SM TSRAGS BKN070CB
     FM240900 VRB05KT P6SM SKC
     FM241200 24015KT P6SM SKC
     FM241800 27020G35KT P6SM SKC=

USA.gov is the U.S. government's official web portal to all federal, state and local government web resources and services.